createdAt,value
2022-09-01T00:00:06.457Z,0.60
2022-09-01T00:02:37.131Z,0.60
2022-09-01T00:05:07.737Z,0.85
2022-09-01T00:07:37.454Z,0.63
2022-09-01T00:10:06.916Z,0.90
2022-09-01T00:12:33.938Z,1.05
2022-09-01T00:15:05.674Z,0.60
2022-09-01T00:17:37.293Z,0.70
2022-09-01T00:20:05.223Z,1.13
2022-09-01T00:22:33.961Z,1.05
2022-09-01T00:25:05.069Z,0.90
2022-09-01T00:27:33.837Z,0.90
2022-09-01T00:30:03.237Z,1.00
2022-09-01T00:32:30.799Z,0.80
2022-09-01T00:34:57.765Z,0.63
2022-09-01T00:37:24.823Z,0.55
2022-09-01T00:39:51.781Z,1.02
2022-09-01T00:42:21.189Z,1.10
2022-09-01T00:44:53.676Z,0.73
2022-09-01T00:47:21.463Z,0.95
2022-09-01T00:49:52.160Z,0.50
2022-09-01T00:52:35.723Z,0.98
2022-09-01T00:55:11.148Z,0.68
2022-09-01T00:57:41.244Z,1.05
2022-09-01T01:00:20.399Z,1.00
2022-09-01T01:02:48.620Z,0.70
2022-09-01T01:05:15.830Z,0.80
2022-09-01T01:07:48.119Z,0.70
2022-09-01T01:10:16.002Z,0.85
2022-09-01T01:12:45.810Z,0.90
2022-09-01T01:15:15.489Z,0.77
2022-09-01T01:17:42.730Z,0.63
2022-09-01T01:20:28.522Z,0.70
2022-09-01T01:23:19.673Z,0.88
2022-09-01T01:25:58.870Z,1.42
2022-09-01T01:28:37.288Z,0.80
2022-09-01T01:31:06.904Z,0.70
2022-09-01T01:33:44.692Z,1.02
2022-09-01T01:36:24.891Z,0.63
2022-09-01T01:38:53.477Z,1.05
2022-09-01T01:41:24.396Z,0.73
2022-09-01T01:43:51.440Z,0.70
2022-09-01T01:46:19.343Z,1.10
2022-09-01T01:48:47.768Z,0.63
2022-09-01T01:51:14.693Z,0.90
2022-09-01T01:53:41.732Z,0.63
2022-09-01T01:56:09.603Z,0.55
2022-09-01T01:58:36.612Z,0.80
2022-09-01T02:01:03.832Z,0.70
2022-09-01T02:03:36.483Z,0.73
2022-09-01T02:06:07.178Z,0.63
2022-09-01T02:08:35.880Z,1.15
2022-09-01T02:11:03.362Z,1.05
2022-09-01T02:13:34.256Z,1.38
2022-09-01T02:16:12.206Z,1.23
2022-09-01T02:18:48.300Z,1.70
2022-09-01T02:21:19.737Z,1.35
2022-09-01T02:24:03.213Z,1.75
2022-09-01T02:26:43.068Z,1.40
2022-09-01T02:29:18.118Z,1.00
2022-09-01T02:31:46.513Z,1.35
2022-09-01T02:34:14.234Z,0.77
2022-09-01T02:36:47.732Z,0.80
2022-09-01T02:39:26.687Z,1.38
2022-09-01T02:41:54.106Z,0.65
2022-09-01T02:44:23.142Z,1.02
2022-09-01T02:46:53.376Z,0.77
2022-09-01T02:49:27.671Z,0.70
2022-09-01T02:51:58.125Z,0.80
2022-09-01T02:54:25.750Z,0.88
2022-09-01T02:56:54.869Z,0.43
2022-09-01T02:59:23.024Z,0.90
2022-09-01T03:01:51.140Z,0.70
2022-09-01T03:04:18.546Z,0.80
2022-09-01T03:06:45.579Z,0.60
2022-09-01T03:09:14.884Z,1.30
2022-09-01T03:11:44.180Z,0.77
2022-09-01T03:14:11.183Z,0.70
2022-09-01T03:16:39.460Z,0.70
2022-09-01T03:19:11.250Z,0.80
2022-09-01T03:21:43.390Z,0.70
2022-09-01T03:24:12.625Z,0.63
2022-09-01T03:26:40.600Z,1.33
2022-09-01T03:29:10.121Z,1.10
2022-09-01T03:31:45.962Z,0.77
2022-09-01T03:34:12.987Z,0.60
2022-09-01T03:36:40.129Z,0.70
2022-09-01T03:39:14.549Z,1.38
2022-09-01T03:41:43.734Z,0.55
2022-09-01T03:44:12.186Z,0.50
2022-09-01T03:46:40.539Z,1.15
2022-09-01T03:49:08.223Z,0.68
2022-09-01T03:51:35.794Z,0.32
2022-09-01T03:54:02.725Z,0.95
2022-09-01T03:56:34.240Z,0.75
2022-09-01T03:59:01.377Z,0.70
2022-09-01T04:01:33.014Z,0.88
2022-09-01T04:04:03.037Z,0.80
2022-09-01T04:06:31.137Z,1.35
2022-09-01T04:09:03.406Z,1.35
2022-09-01T04:11:30.956Z,0.60
2022-09-01T04:13:58.111Z,0.80
2022-09-01T04:16:49.761Z,0.75
2022-09-01T04:19:27.755Z,0.80
2022-09-01T04:22:05.730Z,1.13
2022-09-01T04:24:35.770Z,0.85
2022-09-01T04:27:02.985Z,1.08
2022-09-01T04:29:32.152Z,0.65
2022-09-01T04:32:13.297Z,1.00
2022-09-01T04:34:41.920Z,0.60
2022-09-01T04:37:15.186Z,0.60
2022-09-01T04:39:52.567Z,1.27
2022-09-01T04:42:24.322Z,0.63
2022-09-01T04:44:54.144Z,0.90
2022-09-01T04:47:35.807Z,1.02
2022-09-01T04:50:04.508Z,0.77
2022-09-01T04:52:34.584Z,0.90
2022-09-01T04:55:05.740Z,0.80
2022-09-01T04:57:33.048Z,1.13
2022-09-01T05:00:02.473Z,0.85
2022-09-01T05:02:29.539Z,0.73
2022-09-01T05:04:58.791Z,1.00
2022-09-01T05:07:27.121Z,0.85
2022-09-01T05:09:58.066Z,0.77
2022-09-01T05:12:27.853Z,1.10
2022-09-01T05:14:56.259Z,0.68
2022-09-01T05:17:26.233Z,0.80
2022-09-01T05:19:54.490Z,0.75
2022-09-01T05:22:26.037Z,1.08
2022-09-01T05:24:54.943Z,1.20
2022-09-01T05:27:23.053Z,1.23
2022-09-01T05:29:54.274Z,1.17
2022-09-01T05:32:26.186Z,0.80
2022-09-01T05:34:53.835Z,1.10
2022-09-01T05:37:23.742Z,0.70
2022-09-01T05:39:52.571Z,1.17
2022-09-01T05:42:19.618Z,0.90
2022-09-01T05:44:49.006Z,0.93
2022-09-01T05:47:21.854Z,0.80
2022-09-01T05:49:52.757Z,0.70
2022-09-01T05:52:26.433Z,1.00
2022-09-01T05:55:04.678Z,0.70
2022-09-01T05:57:35.394Z,1.00
2022-09-01T06:00:11.281Z,0.68
2022-09-01T06:02:41.645Z,0.60
2022-09-01T06:05:09.227Z,1.13
2022-09-01T06:07:43.009Z,1.15
2022-09-01T06:10:10.199Z,1.20
2022-09-01T06:12:37.385Z,0.98
2022-09-01T06:15:07.369Z,0.95
2022-09-01T06:17:36.044Z,1.33
2022-09-01T06:20:10.809Z,1.10
2022-09-01T06:22:45.532Z,0.95
2022-09-01T06:25:20.722Z,0.90
2022-09-01T06:27:48.350Z,0.70
2022-09-01T06:30:24.190Z,1.08
2022-09-01T06:32:51.895Z,1.10
2022-09-01T06:35:18.871Z,0.80
2022-09-01T06:37:46.261Z,0.90
2022-09-01T06:40:21.700Z,0.75
2022-09-01T06:42:50.962Z,0.80
2022-09-01T06:45:22.757Z,0.63
2022-09-01T06:47:51.394Z,0.85
2022-09-01T06:53:35.152Z,0.47
2022-09-01T06:56:03.025Z,0.60
2022-09-01T06:58:31.254Z,1.00
2022-09-01T07:00:58.459Z,0.75
2022-09-01T07:03:26.165Z,1.02
2022-09-01T07:06:08.939Z,0.65
2022-09-01T07:14:16.570Z,0.50
2022-09-01T07:16:52.049Z,0.95
2022-09-01T07:19:49.227Z,0.77
2022-09-01T07:30:41.350Z,0.95
2022-09-01T07:36:26.269Z,1.10
2022-09-01T07:45:47.217Z,1.17
2022-09-01T07:49:01.578Z,1.42
2022-09-01T07:51:40.570Z,0.95
2022-09-01T07:54:27.838Z,0.77
2022-09-01T07:56:57.472Z,0.70
2022-09-01T07:59:24.615Z,0.60
2022-09-01T08:01:57.491Z,1.00
2022-09-01T08:04:47.945Z,0.80
2022-09-01T08:07:51.743Z,1.13
2022-09-01T08:14:19.314Z,1.75
2022-09-01T08:24:51.528Z,0.98
2022-09-01T08:30:39.419Z,0.80
2022-09-01T08:33:54.266Z,0.93
2022-09-01T08:36:54.510Z,0.98
2022-09-01T08:39:49.782Z,1.02
2022-09-01T08:42:51.575Z,0.80
2022-09-01T08:45:24.402Z,0.75
2022-09-01T08:48:32.311Z,0.73
2022-09-01T08:50:45.545Z,0.88
2022-09-01T08:53:32.809Z,0.73
2022-09-01T08:56:00.251Z,0.73
2022-09-01T08:58:30.968Z,0.80
2022-09-01T09:01:12.319Z,0.60
2022-09-01T09:03:43.134Z,0.90
2022-09-01T09:06:13.027Z,0.70
2022-09-01T09:08:58.336Z,0.63
2022-09-01T09:12:01.095Z,0.70
2022-09-01T09:15:08.839Z,0.43
2022-09-01T09:17:44.134Z,0.55
2022-09-01T09:20:16.538Z,0.50
2022-09-01T09:22:47.586Z,0.90
2022-09-01T09:25:21.275Z,0.85
2022-09-01T09:30:28.957Z,0.65
2022-09-01T09:35:57.447Z,0.77
2022-09-01T09:38:32.707Z,1.45
2022-09-01T09:41:16.406Z,0.82
2022-09-01T09:44:13.461Z,0.93
2022-09-01T09:46:44.425Z,0.77
2022-09-01T09:49:34.343Z,0.82
2022-09-01T09:52:04.167Z,0.63
2022-09-01T09:54:33.162Z,0.90
2022-09-01T09:57:06.501Z,0.90
2022-09-01T09:59:57.030Z,0.77
2022-09-01T10:02:35.537Z,0.80
2022-09-01T10:05:23.412Z,0.50
2022-09-01T10:07:53.460Z,1.00
2022-09-01T10:10:41.812Z,0.57
2022-09-01T10:13:13.820Z,0.60
2022-09-01T10:15:41.070Z,0.60
2022-09-01T10:18:28.831Z,0.77
2022-09-01T10:21:04.565Z,0.50
2022-09-01T10:23:32.539Z,0.60
2022-09-01T10:26:09.965Z,0.98
2022-09-01T10:28:41.657Z,0.50
2022-09-01T10:31:16.652Z,0.52
2022-09-01T10:33:43.976Z,0.45
2022-09-01T10:36:11.172Z,0.52
2022-09-01T10:39:04.631Z,0.47
2022-09-01T10:41:53.320Z,1.10
2022-09-01T10:44:35.822Z,0.55
2022-09-01T10:47:24.857Z,0.80
2022-09-01T10:49:52.057Z,0.47
2022-09-01T10:52:41.100Z,0.55
2022-09-01T10:55:24.432Z,0.40
2022-09-01T11:01:51.077Z,0.90
2022-09-01T11:08:50.892Z,0.60
2022-09-01T11:15:53.316Z,0.30
2022-09-01T11:25:13.040Z,0.50
2022-09-01T11:31:46.374Z,0.50
2022-09-01T11:35:05.412Z,0.70
2022-09-01T11:38:14.804Z,0.50
2022-09-01T11:51:18.355Z,0.55
2022-09-01T11:51:31.492Z,0.32
2022-09-01T11:53:52.211Z,0.50
2022-09-01T11:56:34.428Z,0.50
2022-09-01T12:00:01.672Z,0.63
2022-09-01T12:05:02.641Z,0.75
2022-09-01T12:08:13.313Z,0.70
2022-09-01T12:11:12.868Z,0.45
2022-09-01T12:24:31.440Z,0.35
2022-09-01T12:29:32.334Z,0.60
2022-09-01T12:31:07.888Z,0.40
2022-09-01T12:34:17.020Z,0.57
2022-09-01T12:37:22.470Z,0.75
2022-09-01T12:40:00.449Z,0.47
2022-09-01T12:42:44.169Z,0.90
2022-09-01T12:45:19.607Z,0.55
2022-09-01T12:47:52.917Z,0.60
2022-09-01T12:50:20.128Z,0.73
2022-09-01T12:52:55.772Z,0.85
2022-09-01T12:58:12.996Z,0.55
2022-09-01T13:00:59.669Z,0.57
2022-09-01T13:03:31.904Z,0.73
2022-09-01T13:06:02.544Z,0.55
2022-09-01T13:08:33.258Z,1.15
2022-09-01T13:12:05.550Z,0.50
2022-09-01T13:17:38.889Z,0.40
2022-09-01T13:20:06.858Z,0.60
2022-09-01T13:22:38.331Z,0.45
2022-09-01T13:25:05.910Z,0.88
2022-09-01T13:27:33.172Z,0.60
2022-09-01T13:30:00.526Z,0.85
2022-09-01T13:32:27.589Z,0.65
2022-09-01T13:34:55.180Z,0.60
2022-09-01T13:37:26.856Z,0.40
2022-09-01T13:39:56.995Z,0.50
2022-09-01T13:42:28.590Z,0.93
2022-09-01T13:44:57.073Z,0.90
2022-09-01T13:47:32.034Z,0.65
2022-09-01T13:50:09.778Z,0.98
2022-09-01T13:52:42.863Z,0.60
2022-09-01T13:55:17.585Z,0.82
2022-09-01T13:57:44.642Z,0.60
2022-09-01T14:00:14.193Z,0.82
2022-09-01T14:03:00.054Z,0.80
2022-09-01T14:05:30.598Z,0.70
2022-09-01T14:08:01.731Z,1.10
2022-09-01T14:10:29.895Z,0.60
2022-09-01T14:12:56.971Z,0.98
2022-09-01T14:15:27.271Z,1.17
2022-09-01T14:17:56.626Z,1.15
2022-09-01T14:20:29.204Z,0.95
2022-09-01T14:22:56.356Z,0.83
2022-09-01T14:25:23.492Z,1.02
2022-09-01T14:27:50.758Z,1.10
2022-09-01T14:30:21.403Z,0.85
2022-09-01T14:32:48.709Z,0.98
2022-09-01T14:35:16.478Z,1.20
2022-09-01T14:37:45.774Z,1.00
2022-09-01T14:40:16.676Z,1.02
2022-09-01T14:42:45.877Z,1.25
2022-09-01T14:45:15.626Z,0.77
2022-09-01T14:47:44.397Z,0.95
2022-09-01T14:50:12.229Z,0.95
2022-09-01T14:52:39.396Z,1.13
2022-09-01T14:55:07.516Z,1.60
2022-09-01T14:57:36.863Z,0.77
2022-09-01T15:00:10.560Z,1.05
2022-09-01T15:02:39.223Z,0.95
2022-09-01T15:05:08.144Z,0.77
2022-09-01T15:07:35.810Z,1.20
2022-09-01T15:10:03.783Z,1.13
2022-09-01T15:12:33.500Z,0.95
2022-09-01T15:15:00.667Z,1.30
2022-09-01T15:17:29.414Z,1.17
2022-09-01T15:19:56.584Z,1.20
2022-09-01T15:22:23.839Z,2.15
2022-09-01T15:24:56.650Z,1.35
2022-09-01T15:27:26.285Z,1.20
2022-09-01T15:29:56.003Z,1.13
2022-09-01T15:32:28.314Z,1.15
2022-09-01T15:34:56.354Z,1.30
2022-09-01T15:37:26.602Z,1.52
2022-09-01T15:39:53.786Z,1.25
2022-09-01T15:42:24.697Z,1.38
2022-09-01T15:44:52.260Z,1.25
2022-09-01T15:47:20.007Z,1.02
2022-09-01T15:49:52.213Z,1.20
2022-09-01T15:52:21.770Z,1.27
2022-09-01T15:54:48.813Z,1.17
2022-09-01T15:57:15.915Z,1.33
2022-09-01T15:59:45.903Z,1.27
2022-09-01T16:02:14.007Z,1.48
2022-09-01T16:04:41.125Z,1.17
2022-09-01T16:07:34.561Z,1.27
2022-09-01T16:10:13.399Z,1.25
2022-09-01T16:12:54.323Z,1.13
2022-09-01T16:15:28.055Z,0.93
2022-09-01T16:18:14.262Z,1.45
2022-09-01T16:24:27.087Z,1.50
2022-09-01T16:26:54.403Z,1.02
2022-09-01T16:29:45.212Z,1.10
2022-09-01T16:32:12.589Z,1.40
2022-09-01T16:34:47.310Z,1.30
2022-09-01T16:37:28.893Z,0.60
2022-09-01T16:40:09.415Z,0.90
2022-09-01T16:43:20.540Z,1.13
2022-09-01T16:49:35.177Z,1.23
2022-09-01T16:52:08.674Z,1.95
2022-09-01T16:57:36.255Z,1.08
2022-09-01T17:00:11.484Z,1.38
2022-09-01T17:03:17.260Z,1.45
2022-09-01T17:05:50.925Z,1.10
2022-09-01T17:11:07.030Z,1.83
2022-09-01T17:13:48.131Z,1.27
2022-09-01T17:16:29.786Z,1.60
2022-09-01T17:19:01.923Z,1.10
2022-09-01T17:22:10.952Z,1.40
2022-09-01T17:24:43.837Z,1.75
2022-09-01T17:27:41.743Z,1.30
2022-09-01T17:30:09.295Z,1.08
2022-09-01T17:32:58.196Z,1.50
2022-09-01T17:35:53.524Z,1.77
2022-09-01T17:42:11.386Z,1.30
2022-09-01T17:44:52.051Z,1.40
2022-09-01T17:47:35.592Z,1.27
2022-09-01T17:51:04.815Z,1.15
2022-09-01T17:54:03.811Z,1.30
2022-09-01T18:01:19.347Z,1.70
2022-09-01T18:03:49.448Z,1.48
2022-09-01T18:06:37.612Z,1.52
2022-09-01T18:09:05.222Z,1.55
2022-09-01T18:12:13.538Z,1.63
2022-09-01T18:15:00.853Z,1.92
2022-09-01T18:17:38.684Z,1.75
2022-09-01T18:20:34.870Z,1.63
2022-09-01T18:23:21.984Z,1.98
2022-09-01T18:25:57.903Z,2.55
2022-09-01T18:28:24.919Z,1.77
2022-09-01T18:31:01.802Z,2.33
2022-09-01T18:33:43.358Z,2.25
2022-09-01T18:36:36.011Z,2.22
2022-09-01T18:39:44.739Z,2.67
2022-09-01T18:42:38.938Z,3.03
2022-09-01T18:45:43.430Z,2.45
2022-09-01T18:48:59.662Z,2.42
2022-09-01T18:55:45.248Z,2.42
2022-09-01T18:58:40.568Z,2.15
2022-09-01T19:01:09.582Z,2.15
2022-09-01T19:03:38.983Z,2.25
2022-09-01T19:06:27.555Z,2.53
2022-09-01T19:09:44.850Z,2.85
2022-09-01T19:13:44.580Z,2.15
2022-09-01T21:28:45.096Z,1.38
2022-09-01T21:31:15.271Z,1.38
2022-09-01T21:34:02.610Z,1.42
2022-09-01T21:36:51.169Z,1.27
2022-09-01T21:39:22.514Z,1.23
2022-09-01T21:41:54.057Z,1.40
2022-09-01T21:44:25.776Z,1.60
2022-09-01T21:46:57.152Z,1.50
2022-09-01T21:49:32.246Z,1.90
2022-09-01T21:52:00.511Z,1.70
2022-09-01T21:54:31.581Z,1.88
2022-09-01T21:57:01.982Z,1.90
2022-09-01T21:59:33.275Z,1.98
2022-09-01T22:02:18.785Z,1.98
2022-09-01T22:04:57.285Z,2.47
2022-09-01T22:07:59.620Z,2.60
2022-09-01T22:14:16.155Z,3.97
2022-09-01T22:20:25.655Z,3.20
2022-09-01T22:27:27.234Z,2.83
2022-09-01T22:33:01.154Z,3.20
2022-09-01T22:35:52.539Z,3.35
2022-09-01T22:38:38.971Z,3.47
2022-09-01T22:41:29.986Z,3.63
2022-09-01T22:44:23.720Z,3.85
2022-09-01T22:47:17.108Z,3.67
2022-09-01T22:50:31.408Z,4.18
2022-09-01T22:55:47.304Z,3.78
2022-09-01T23:01:36.776Z,4.20
2022-09-01T23:04:23.648Z,5.20
2022-09-01T23:09:36.096Z,4.15
2022-09-01T23:12:10.440Z,4.50
2022-09-01T23:14:42.178Z,4.75
2022-09-01T23:17:22.343Z,3.65
2022-09-01T23:19:51.934Z,3.75
2022-09-01T23:22:21.729Z,4.25
2022-09-01T23:24:57.576Z,3.35
2022-09-01T23:27:29.073Z,2.88
2022-09-01T23:30:22.907Z,3.20
2022-09-01T23:32:55.533Z,3.17
2022-09-01T23:35:29.781Z,2.92
2022-09-01T23:38:01.275Z,2.78
2022-09-01T23:40:36.104Z,2.35
2022-09-01T23:43:05.718Z,2.70
2022-09-01T23:45:39.133Z,2.50
2022-09-01T23:48:17.443Z,2.33
2022-09-01T23:51:17.285Z,3.05
2022-09-01T23:53:48.479Z,2.70
2022-09-01T23:56:34.977Z,3.05
2022-09-01T23:59:09.339Z,2.28
